createdAt,value
2019-02-15T00:00:53.574Z,3.81
2019-02-15T00:03:23.862Z,3.80
2019-02-15T00:05:54.363Z,3.77
2019-02-15T00:08:24.667Z,3.73
2019-02-15T00:10:55.060Z,3.75
2019-02-15T00:13:25.836Z,3.70
2019-02-15T00:15:56.245Z,3.67
2019-02-15T00:18:30.097Z,3.62
2019-02-15T00:21:20.460Z,3.53
2019-02-15T00:23:50.788Z,3.47
2019-02-15T00:26:21.990Z,3.44
2019-02-15T00:28:52.442Z,3.40
2019-02-15T00:31:22.843Z,3.32
2019-02-15T00:33:53.167Z,3.31
2019-02-15T00:36:23.447Z,3.23
2019-02-15T00:38:53.751Z,3.18
2019-02-15T00:41:24.006Z,3.14
2019-02-15T00:43:54.351Z,3.11
2019-02-15T00:46:29.182Z,3.08
2019-02-15T00:49:00.326Z,3.08
2019-02-15T00:51:44.259Z,3.10
2019-02-15T00:54:16.214Z,3.09
2019-02-15T00:56:48.139Z,2.99
2019-02-15T00:59:29.347Z,2.96
2019-02-15T01:02:03.956Z,2.92
2019-02-15T01:04:44.924Z,2.89
2019-02-15T01:07:16.826Z,2.87
2019-02-15T01:09:48.801Z,2.83
2019-02-15T01:12:23.743Z,2.79
2019-02-15T01:14:54.028Z,2.83
2019-02-15T01:17:24.298Z,2.75
2019-02-15T01:19:54.648Z,2.69
2019-02-15T01:22:24.898Z,2.64
2019-02-15T01:24:55.183Z,2.56
2019-02-15T01:27:27.902Z,2.48
2019-02-15T01:30:02.741Z,2.42
2019-02-15T01:32:34.679Z,2.42
2019-02-15T01:35:15.771Z,2.40
2019-02-15T01:37:57.793Z,2.42
2019-02-15T01:40:32.833Z,2.42
2019-02-15T01:43:04.753Z,2.43
2019-02-15T01:45:36.683Z,2.42
2019-02-15T01:48:06.948Z,2.36
2019-02-15T01:50:38.304Z,2.34
2019-02-15T01:53:08.579Z,2.31
2019-02-15T01:55:38.859Z,2.24
2019-02-15T01:58:09.145Z,2.15
2019-02-15T02:00:39.530Z,2.05
2019-02-15T02:03:09.782Z,1.91
2019-02-15T02:05:40.075Z,1.78
2019-02-15T02:08:11.992Z,1.68
2019-02-15T02:10:42.293Z,1.69
2019-02-15T02:13:12.543Z,1.75
2019-02-15T02:15:42.825Z,1.77
2019-02-15T02:18:13.081Z,1.71
2019-02-15T02:20:43.729Z,1.72
2019-02-15T02:23:13.983Z,1.68
2019-02-15T02:25:44.266Z,1.66
2019-02-15T02:28:15.418Z,1.71
2019-02-15T02:30:45.696Z,1.72
2019-02-15T02:33:15.970Z,1.70
2019-02-15T02:38:22.465Z,1.71
2019-02-15T02:40:52.757Z,1.69
2019-02-15T02:43:23.046Z,1.66
2019-02-15T02:45:53.324Z,1.64
2019-02-15T02:48:23.610Z,1.64
2019-02-15T02:50:53.886Z,1.60
2019-02-15T02:53:24.185Z,1.57
2019-02-15T02:55:54.524Z,1.52
2019-02-15T02:58:24.781Z,1.48
2019-02-15T03:00:55.242Z,1.38
2019-02-15T03:03:25.513Z,1.32
2019-02-15T03:05:55.788Z,1.27
2019-02-15T03:08:26.044Z,1.22
2019-02-15T03:10:56.397Z,1.15
2019-02-15T03:13:26.665Z,1.09
2019-02-15T03:15:56.933Z,1.11
2019-02-15T03:18:27.186Z,1.09
2019-02-15T03:20:57.475Z,1.04
2019-02-15T03:23:27.743Z,0.89
2019-02-15T03:25:58.073Z,0.81
2019-02-15T03:28:28.319Z,0.75
2019-02-15T03:30:58.597Z,0.75
2019-02-15T03:33:28.868Z,0.73
2019-02-15T03:36:00.790Z,0.65
2019-02-15T03:38:35.383Z,0.60
2019-02-15T03:41:07.317Z,0.63
2019-02-15T03:43:37.601Z,0.61
2019-02-15T03:46:07.856Z,0.47
2019-02-15T03:48:38.142Z,0.52
2019-02-15T03:51:08.418Z,0.50
2019-02-15T03:53:38.695Z,0.46
2019-02-15T03:56:08.971Z,0.39
2019-02-15T03:58:39.212Z,0.50
2019-02-15T04:01:10.474Z,0.46
2019-02-15T04:03:40.717Z,0.38
2019-02-15T04:06:12.108Z,0.30
2019-02-15T04:08:44.407Z,0.24
2019-02-15T04:11:14.662Z,0.24
2019-02-15T04:13:44.923Z,0.22
2019-02-15T04:16:15.206Z,0.19
2019-02-15T04:18:45.460Z,0.14
2019-02-15T04:21:15.741Z,0.15
2019-02-15T04:23:45.989Z,0.13
2019-02-15T04:26:16.295Z,0.10
2019-02-15T04:28:46.560Z,0.06
2019-02-15T04:31:16.831Z,0.03
2019-02-15T04:33:47.228Z,-0.02
2019-02-15T04:36:17.499Z,-0.04
2019-02-15T04:38:47.780Z,-0.25
2019-02-15T04:41:18.042Z,-0.37
2019-02-15T04:43:48.306Z,-0.46
2019-02-15T04:46:18.609Z,-0.50
2019-02-15T04:48:48.885Z,-0.60
2019-02-15T04:51:19.173Z,-0.67
2019-02-15T04:53:49.446Z,-0.65
2019-02-15T04:56:19.709Z,-0.76
2019-02-15T04:58:49.995Z,-0.88
2019-02-15T05:01:20.265Z,-1.00
2019-02-15T05:03:50.614Z,-1.05
2019-02-15T05:06:20.891Z,-1.12
2019-02-15T05:08:51.235Z,-1.18
2019-02-15T05:11:21.543Z,-1.21
2019-02-15T05:13:51.801Z,-1.14
2019-02-15T05:16:22.097Z,-1.11
2019-02-15T05:18:52.377Z,-1.02
2019-02-15T05:21:22.642Z,-0.98
2019-02-15T05:23:53.011Z,-0.99
2019-02-15T05:26:23.297Z,-0.91
2019-02-15T05:28:54.383Z,-0.80
2019-02-15T05:31:24.635Z,-0.75
2019-02-15T05:33:54.906Z,-0.74
2019-02-15T05:36:25.200Z,-0.68
2019-02-15T05:38:55.454Z,-0.63
2019-02-15T05:41:26.107Z,-0.57
2019-02-15T05:43:56.361Z,-0.49
2019-02-15T05:46:26.644Z,-0.46
2019-02-15T05:48:56.913Z,-0.39
2019-02-15T05:51:27.187Z,-0.38
2019-02-15T05:53:57.502Z,-0.42
2019-02-15T05:56:27.762Z,-0.67
2019-02-15T05:58:58.059Z,-0.71
2019-02-15T06:01:28.765Z,-0.68
2019-02-15T06:03:59.149Z,-0.70
2019-02-15T06:06:30.977Z,-0.88
2019-02-15T06:09:01.251Z,-0.88
2019-02-15T06:11:32.607Z,-0.70
2019-02-15T06:14:02.865Z,-0.60
2019-02-15T06:16:33.135Z,-0.56
2019-02-15T06:19:03.397Z,-0.52
2019-02-15T06:21:33.662Z,-0.51
2019-02-15T06:24:03.920Z,-0.48
2019-02-15T06:26:34.205Z,-0.43
2019-02-15T06:29:05.264Z,-0.39
2019-02-15T06:31:35.535Z,-0.34
2019-02-15T06:34:05.908Z,-0.32
2019-02-15T06:36:36.598Z,-0.29
2019-02-15T06:39:07.369Z,-0.24
2019-02-15T06:41:37.682Z,-0.19
2019-02-15T06:44:07.968Z,-0.16
2019-02-15T06:46:38.235Z,-0.09
2019-02-15T06:49:08.508Z,-0.02
2019-02-15T06:51:38.778Z,0.04
2019-02-15T06:54:09.058Z,0.06
2019-02-15T06:56:39.362Z,0.11
2019-02-15T06:59:20.135Z,0.18
2019-02-15T07:01:52.047Z,0.20
2019-02-15T07:04:26.986Z,0.30
2019-02-15T07:06:57.238Z,0.35
2019-02-15T07:09:27.549Z,0.42
2019-02-15T07:11:57.775Z,0.48
2019-02-15T07:14:28.035Z,0.52
2019-02-15T07:16:58.296Z,0.61
2019-02-15T07:19:28.558Z,0.68
2019-02-15T07:21:58.805Z,0.77
2019-02-15T07:24:29.057Z,0.86
2019-02-15T07:26:59.325Z,0.95
2019-02-15T07:29:30.383Z,1.01
2019-02-15T07:32:00.630Z,1.12
2019-02-15T07:34:30.894Z,1.22
2019-02-15T07:37:01.206Z,1.38
2019-02-15T07:39:31.491Z,1.50
2019-02-15T07:42:01.778Z,1.57
2019-02-15T07:44:32.103Z,1.70
2019-02-15T07:47:02.442Z,1.73
2019-02-15T07:49:32.749Z,1.80
2019-02-15T07:52:03.011Z,1.92
2019-02-15T07:54:33.256Z,2.05
2019-02-15T07:57:03.512Z,2.20
2019-02-15T07:59:33.795Z,2.28
2019-02-15T08:02:04.066Z,2.39
2019-02-15T08:04:34.335Z,2.61
2019-02-15T08:07:04.595Z,2.79
2019-02-15T08:09:34.846Z,2.92
2019-02-15T08:12:05.404Z,3.09
2019-02-15T08:14:35.904Z,3.26
2019-02-15T08:17:06.115Z,3.61
2019-02-15T08:19:36.395Z,4.01
2019-02-15T08:22:06.679Z,4.44
2019-02-15T08:24:37.060Z,4.67
2019-02-15T08:27:07.395Z,5.21
2019-02-15T08:29:43.369Z,5.15
2019-02-15T08:32:14.562Z,5.29
2019-02-15T08:34:45.194Z,5.36
2019-02-15T08:37:15.759Z,6.09
2019-02-15T08:39:46.201Z,6.18
2019-02-15T08:42:16.523Z,5.85
2019-02-15T08:44:46.809Z,5.84
2019-02-15T08:47:17.140Z,5.46
2019-02-15T08:49:47.739Z,5.80
2019-02-15T08:52:18.431Z,6.63
2019-02-15T08:54:48.762Z,6.76
2019-02-15T08:57:19.019Z,7.51
2019-02-15T08:59:49.389Z,7.73
2019-02-15T09:02:21.424Z,7.98
2019-02-15T09:04:53.299Z,8.37
2019-02-15T09:07:23.754Z,8.22
2019-02-15T09:09:54.053Z,8.27
2019-02-15T09:12:24.313Z,8.52
2019-02-15T09:14:54.668Z,8.63
2019-02-15T09:17:25.113Z,8.48
2019-02-15T09:19:55.419Z,8.19
2019-02-15T09:22:25.737Z,8.87
2019-02-15T09:24:56.090Z,8.84
2019-02-15T09:27:28.057Z,9.01
2019-02-15T09:29:59.166Z,9.31
2019-02-15T09:32:29.573Z,9.60
2019-02-15T09:34:59.854Z,9.98
2019-02-15T09:37:30.135Z,10.07
2019-02-15T09:40:00.421Z,10.06
2019-02-15T09:42:30.678Z,9.51
2019-02-15T09:53:08.976Z,10.01
2019-02-15T09:55:39.250Z,9.83
2019-02-15T09:58:09.551Z,10.40
2019-02-15T10:00:39.826Z,8.55
2019-02-15T10:03:10.095Z,8.32
2019-02-15T10:05:40.343Z,7.92
2019-02-15T10:08:10.732Z,7.45
2019-02-15T10:10:42.119Z,7.52
2019-02-15T10:13:12.388Z,6.65
2019-02-15T10:15:42.636Z,5.96
2019-02-15T10:18:12.922Z,6.01
2019-02-15T10:20:43.281Z,6.83
2019-02-15T10:23:13.559Z,7.40
2019-02-15T10:25:43.872Z,6.80
2019-02-15T10:28:14.224Z,6.46
2019-02-15T10:30:45.291Z,6.63
2019-02-15T10:33:15.757Z,6.28
2019-02-15T10:35:46.074Z,6.75
2019-02-15T10:38:16.430Z,6.66
2019-02-15T10:40:46.693Z,7.23
2019-02-15T10:43:17.036Z,7.77
2019-02-15T10:45:47.485Z,7.19
2019-02-15T10:48:17.752Z,6.20
2019-02-15T10:50:48.056Z,5.81
2019-02-15T10:53:18.271Z,4.91
2019-02-15T10:55:48.711Z,4.73
2019-02-15T10:58:18.967Z,4.33
2019-02-15T11:00:49.406Z,4.39
2019-02-15T11:03:19.655Z,4.40
2019-02-15T11:05:49.920Z,4.77
2019-02-15T11:08:20.181Z,4.66
2019-02-15T11:10:50.456Z,4.44
2019-02-15T11:13:20.724Z,4.16
2019-02-15T11:15:52.682Z,4.16
2019-02-15T11:18:22.955Z,4.31
2019-02-15T11:20:53.241Z,4.24
2019-02-15T11:23:23.669Z,4.34
2019-02-15T11:25:53.948Z,4.15
2019-02-15T11:28:24.157Z,4.15
2019-02-15T11:30:54.414Z,4.28
2019-02-15T11:33:24.660Z,4.19
2019-02-15T11:35:54.946Z,4.05
2019-02-15T11:38:26.654Z,3.60
2019-02-15T11:40:56.898Z,3.40
2019-02-15T11:43:27.352Z,3.46
2019-02-15T11:45:57.723Z,3.68
2019-02-15T11:48:29.454Z,4.07
2019-02-15T11:50:59.996Z,4.08
2019-02-15T11:53:30.267Z,4.09
2019-02-15T11:56:01.392Z,4.10
2019-02-15T11:58:31.667Z,4.24
2019-02-15T12:01:01.917Z,4.43
2019-02-15T12:03:33.680Z,4.03
2019-02-15T12:06:04.235Z,4.01
2019-02-15T12:08:34.507Z,4.24
2019-02-15T12:11:04.868Z,4.12
2019-02-15T12:13:35.197Z,4.22
2019-02-15T12:16:05.465Z,4.14
2019-02-15T12:18:35.723Z,4.38
2019-02-15T12:21:06.072Z,4.33
2019-02-15T12:23:37.966Z,4.18
2019-02-15T12:26:08.303Z,4.37
2019-02-15T12:28:38.568Z,4.37
2019-02-15T12:31:08.826Z,4.33
2019-02-15T12:33:39.103Z,4.49
2019-02-15T12:36:09.377Z,4.45
2019-02-15T12:38:39.710Z,4.44
2019-02-15T12:41:09.986Z,4.54
2019-02-15T12:43:40.310Z,4.56
2019-02-15T12:46:10.765Z,4.70
2019-02-15T12:48:41.058Z,4.90
2019-02-15T12:51:11.417Z,4.72
2019-02-15T12:53:41.681Z,4.80
2019-02-15T12:56:11.949Z,5.16
2019-02-15T12:58:42.305Z,4.67
2019-02-15T13:01:12.566Z,5.18
2019-02-15T13:03:42.940Z,5.35
2019-02-15T13:06:13.308Z,5.19
2019-02-15T13:08:43.671Z,4.94
2019-02-15T13:11:14.598Z,4.94
2019-02-15T13:13:45.023Z,4.82
2019-02-15T13:16:15.272Z,4.67
2019-02-15T13:18:45.582Z,4.30
2019-02-15T13:21:15.909Z,4.27
2019-02-15T13:23:46.193Z,4.39
2019-02-15T13:26:16.528Z,4.47
2019-02-15T13:28:46.841Z,4.73
2019-02-15T13:31:17.107Z,4.61
2019-02-15T13:33:47.383Z,4.65
2019-02-15T13:36:17.781Z,4.96
2019-02-15T13:38:48.062Z,5.18
2019-02-15T13:41:18.314Z,5.43
2019-02-15T13:43:48.931Z,5.19
2019-02-15T13:46:19.310Z,5.12
2019-02-15T13:48:49.657Z,5.30
2019-02-15T13:51:20.002Z,5.38
2019-02-15T13:53:50.298Z,5.39
2019-02-15T13:56:20.683Z,5.47
2019-02-15T13:58:50.968Z,5.27
2019-02-15T14:01:21.301Z,5.35
2019-02-15T14:03:51.637Z,5.16
2019-02-15T14:06:23.066Z,5.13
2019-02-15T14:08:54.418Z,5.25
2019-02-15T14:11:28.656Z,5.29
2019-02-15T14:13:59.075Z,5.25
2019-02-15T14:16:29.422Z,5.29
2019-02-15T14:18:59.734Z,5.30
2019-02-15T14:21:30.009Z,5.39
2019-02-15T14:24:00.352Z,5.44
2019-02-15T14:26:32.251Z,5.65
2019-02-15T14:29:02.578Z,5.72
2019-02-15T14:31:33.865Z,5.58
2019-02-15T14:34:05.195Z,5.55
2019-02-15T14:36:35.724Z,5.60
2019-02-15T14:39:07.861Z,5.46
2019-02-15T14:41:38.220Z,5.44
2019-02-15T14:44:08.815Z,5.40
2019-02-15T14:46:43.442Z,5.35
2019-02-15T14:49:14.227Z,5.33
2019-02-15T14:51:44.582Z,5.38
2019-02-15T14:54:14.841Z,5.27
2019-02-15T14:56:45.108Z,5.24
2019-02-15T14:59:15.379Z,5.21
2019-02-15T15:01:45.910Z,5.15
2019-02-15T15:04:16.171Z,5.16
2019-02-15T15:06:46.735Z,5.03
2019-02-15T15:09:17.607Z,4.96
2019-02-15T15:11:48.021Z,4.85
2019-02-15T15:14:18.257Z,4.76
2019-02-15T15:16:48.568Z,4.74
2019-02-15T15:19:18.923Z,4.70
2019-02-15T15:21:49.308Z,4.69
2019-02-15T15:24:25.173Z,4.64
2019-02-15T15:26:55.734Z,4.61
2019-02-15T15:29:34.563Z,4.54
2019-02-15T15:32:06.938Z,4.46
2019-02-15T15:38:22.451Z,4.39
2019-02-15T15:41:01.572Z,4.38
2019-02-15T15:43:31.906Z,4.35
2019-02-15T15:46:02.236Z,4.33
2019-02-15T15:48:32.658Z,4.30
2019-02-15T15:51:02.939Z,4.27
2019-02-15T15:53:33.323Z,4.24
2019-02-15T15:56:03.622Z,4.16
2019-02-15T15:58:33.990Z,3.99
2019-02-15T16:01:04.375Z,3.75
2019-02-15T16:03:34.789Z,3.68
2019-02-15T16:06:05.109Z,3.61
2019-02-15T16:08:35.536Z,3.59
2019-02-15T16:11:05.805Z,3.51
2019-02-15T16:13:39.975Z,3.42
2019-02-15T16:16:10.355Z,3.35
2019-02-15T16:18:40.701Z,3.22
2019-02-15T16:21:11.182Z,3.12
2019-02-15T16:23:41.449Z,3.05
2019-02-15T16:26:11.927Z,2.99
2019-02-15T16:28:42.295Z,2.89
2019-02-15T16:31:12.576Z,2.80
2019-02-15T16:33:42.961Z,2.60
2019-02-15T16:36:13.252Z,2.42
2019-02-15T16:38:43.563Z,2.26
2019-02-15T16:41:13.850Z,2.15
2019-02-15T16:43:44.105Z,2.15
2019-02-15T16:46:14.440Z,2.13
2019-02-15T16:48:44.597Z,2.09
2019-02-15T16:51:14.902Z,2.09
2019-02-15T16:53:45.177Z,2.19
2019-02-15T16:56:15.507Z,2.09
2019-02-15T16:58:45.844Z,2.02
2019-02-15T17:01:16.238Z,2.01
2019-02-15T17:03:46.607Z,1.91
2019-02-15T17:06:23.413Z,1.95
2019-02-15T17:08:55.495Z,2.00
2019-02-15T17:11:30.304Z,1.98
2019-02-15T17:14:07.640Z,1.79
2019-02-15T17:16:39.299Z,1.67
2019-02-15T17:19:09.655Z,1.55
2019-02-15T17:21:40.149Z,1.49
2019-02-15T17:24:11.554Z,1.43
2019-02-15T17:26:41.812Z,1.45
2019-02-15T17:29:12.167Z,1.46
2019-02-15T17:31:42.599Z,1.49
2019-02-15T17:34:13.735Z,1.26
2019-02-15T17:36:44.128Z,1.35
2019-02-15T17:39:21.924Z,1.28
2019-02-15T17:41:53.014Z,1.27
2019-02-15T17:44:23.287Z,1.32
2019-02-15T17:46:53.751Z,1.37
2019-02-15T17:49:24.321Z,1.29
2019-02-15T17:51:54.767Z,1.32
2019-02-15T17:54:25.172Z,1.05
2019-02-15T17:56:55.591Z,0.96
2019-02-15T17:59:26.098Z,0.90
2019-02-15T18:01:56.492Z,0.77
2019-02-15T18:04:26.857Z,0.63
2019-02-15T18:06:58.857Z,0.46
2019-02-15T18:09:29.241Z,0.44
2019-02-15T18:12:00.604Z,0.40
2019-02-15T18:14:30.876Z,0.34
2019-02-15T18:17:01.310Z,0.39
2019-02-15T18:19:32.148Z,0.46
2019-02-15T18:22:03.106Z,0.44
2019-02-15T18:24:34.802Z,0.32
2019-02-15T18:27:23.528Z,0.29
2019-02-15T18:29:55.581Z,0.36
2019-02-15T18:32:27.426Z,0.59
2019-02-15T18:34:58.614Z,0.70
2019-02-15T18:45:28.794Z,0.52
2019-02-15T18:48:00.985Z,0.47
2019-02-15T18:50:37.181Z,0.26
2019-02-15T18:53:07.612Z,0.18
2019-02-15T18:55:38.093Z,0.05
2019-02-15T18:58:09.714Z,-0.06
2019-02-15T19:00:41.816Z,-0.08
2019-02-15T19:03:12.846Z,-0.07
2019-02-15T19:05:43.433Z,0.00
2019-02-15T19:08:13.766Z,0.08
2019-02-15T19:10:44.585Z,0.20
2019-02-15T19:13:14.839Z,0.20
2019-02-15T19:15:46.039Z,0.18
2019-02-15T19:18:16.405Z,-0.55
2019-02-15T19:20:47.076Z,-0.99
2019-02-15T19:23:20.747Z,-1.12
2019-02-15T19:25:53.920Z,-1.12
2019-02-15T19:29:09.846Z,-1.11
2019-02-15T19:31:41.675Z,-1.07
2019-02-15T19:34:12.937Z,-1.05
2019-02-15T19:36:46.402Z,-1.01
2019-02-15T19:39:16.878Z,-0.92
2019-02-15T19:41:50.363Z,-0.83
2019-02-15T19:44:25.213Z,-0.75
2019-02-15T19:47:00.855Z,-0.78
2019-02-15T19:49:38.568Z,-0.73
2019-02-15T19:52:08.935Z,-0.75
2019-02-15T19:54:47.355Z,-0.81
2019-02-15T19:57:19.298Z,-0.89
2019-02-15T20:04:16.339Z,-0.76
2019-02-15T20:06:51.270Z,-0.70
2019-02-15T20:09:27.345Z,-0.73
2019-02-15T20:12:00.794Z,-0.76
2019-02-15T20:14:38.368Z,-0.92
2019-02-15T20:17:11.497Z,-0.98
2019-02-15T20:19:48.667Z,-0.92
2019-02-15T20:26:24.209Z,-0.97
2019-02-15T20:28:57.259Z,-1.04
2019-02-15T20:31:28.399Z,-1.05
2019-02-15T20:33:58.769Z,-1.19
2019-02-15T20:36:35.227Z,-1.29
2019-02-15T20:39:06.610Z,-1.28
2019-02-15T20:41:46.135Z,-1.30
2019-02-15T20:44:20.979Z,-1.28
2019-02-15T20:46:54.635Z,-1.27
2019-02-15T20:49:27.883Z,-1.29
2019-02-15T20:51:58.519Z,-1.25
2019-02-15T20:54:30.100Z,-1.28
2019-02-15T20:57:04.622Z,-1.28
2019-02-15T20:59:38.022Z,-1.30
2019-02-15T21:02:11.466Z,-1.28
2019-02-15T21:04:42.904Z,-1.26
2019-02-15T21:07:15.770Z,-1.14
2019-02-15T21:09:48.443Z,-1.06
2019-02-15T21:12:20.851Z,-0.94
2019-02-15T21:14:53.424Z,-0.96
2019-02-15T21:17:23.682Z,-0.98
2019-02-15T21:19:54.287Z,-1.09
2019-02-15T21:22:25.657Z,-1.21
2019-02-15T21:24:57.571Z,-1.18
2019-02-15T21:27:29.037Z,-1.13
2019-02-15T21:30:11.828Z,-1.06
2019-02-15T21:32:42.685Z,-1.00
2019-02-15T21:35:13.280Z,-1.05
2019-02-15T21:37:43.584Z,-0.99
2019-02-15T21:40:18.240Z,-0.89
2019-02-15T21:42:49.015Z,-0.81
2019-02-15T21:45:20.654Z,-0.82
2019-02-15T21:47:56.651Z,-0.84
2019-02-15T21:50:29.958Z,-0.86
2019-02-15T21:53:00.603Z,-0.84
2019-02-15T21:55:32.501Z,-0.86
2019-02-15T21:58:03.661Z,-0.82
2019-02-15T22:00:34.486Z,-0.90
2019-02-15T22:03:05.709Z,-0.96
2019-02-15T22:05:37.809Z,-0.97
2019-02-15T22:08:11.939Z,-1.00
2019-02-15T22:10:43.909Z,-0.94
2019-02-15T22:13:16.865Z,-0.91
2019-02-15T22:15:47.834Z,-0.86
2019-02-15T22:18:20.896Z,-0.94
2019-02-15T22:20:51.797Z,-0.92
2019-02-15T22:23:22.390Z,-0.97
2019-02-15T22:25:52.731Z,-0.99
2019-02-15T22:28:25.606Z,-1.02
2019-02-15T22:34:57.926Z,-1.07
2019-02-15T22:37:29.704Z,-1.12
2019-02-15T22:40:04.273Z,-1.14
2019-02-15T22:42:36.993Z,-1.14
2019-02-15T22:45:08.437Z,-1.13
2019-02-15T22:47:38.733Z,-1.07
2019-02-15T22:50:11.143Z,-1.11
2019-02-15T22:52:42.037Z,-1.15
2019-02-15T22:55:13.303Z,-1.22
2019-02-15T22:57:43.620Z,-1.26
2019-02-15T23:00:48.730Z,-1.38
2019-02-15T23:03:21.354Z,-1.41
2019-02-15T23:05:53.446Z,-1.34
2019-02-15T23:08:27.220Z,-1.39
2019-02-15T23:10:58.313Z,-1.42
2019-02-15T23:13:28.594Z,-1.38
2019-02-15T23:15:59.175Z,-1.28
2019-02-15T23:18:29.589Z,-1.25
2019-02-15T23:20:59.921Z,-1.29
2019-02-15T23:23:30.189Z,-1.27
2019-02-15T23:26:00.719Z,-1.40
2019-02-15T23:28:31.203Z,-1.47
2019-02-15T23:31:01.750Z,-1.57
2019-02-15T23:33:32.384Z,-1.54
2019-02-15T23:36:02.897Z,-1.59
2019-02-15T23:38:33.303Z,-1.60
2019-02-15T23:41:03.792Z,-1.64
2019-02-15T23:43:34.388Z,-1.72
2019-02-15T23:46:04.889Z,-1.75
2019-02-15T23:48:35.170Z,-1.77
2019-02-15T23:51:05.646Z,-1.85
2019-02-15T23:53:36.520Z,-1.83
2019-02-15T23:56:07.143Z,-1.83
2019-02-15T23:58:37.831Z,-1.85
